Time;durP1;ratioP1;P1;durP2;ratioP2;P2;SDS_P1;SDS_P2;PMS_P1;PMS_P2;Temp;Humidity;BMP_temperature;BMP_pressure;BME280_temperature;BME280_humidity;BME280_pressure;Samples;Min_cycle;Max_cycle;Signal;HPM_P1;HPM_P2
2022/05/15 00:00:37;;;;;;;16.12;9.45;;;;;;;15.23;75.20;100596.95;2940129;80;21049;-88
2022/05/15 00:01:39;;;;;;;19.05;8.98;;;;;;;15.24;75.26;100604.51;2912440;80;21054;-87
2022/05/15 00:05:42;;;;;;;15.08;9.95;;;;;;;15.17;75.33;100604.25;2922387;80;21039;-86
2022/05/15 00:09:43;;;;;;;13.32;9.75;;;;;;;15.17;75.47;100601.58;2930031;80;20996;-87
2022/05/15 00:13:47;;;;;;;11.30;8.15;;;;;;;15.15;75.36;100602.22;2903402;81;20990;-88
2022/05/15 00:17:48;;;;;;;13.60;9.35;;;;;;;15.23;75.43;100607.67;2894151;81;21019;-87
2022/05/15 00:21:49;;;;;;;13.75;9.43;;;;;;;15.28;75.24;100609.40;2903953;80;21040;-87
2022/05/15 00:25:51;;;;;;;19.50;11.03;;;;;;;15.31;75.23;100610.95;2921996;81;21059;-87
2022/05/15 00:29:52;;;;;;;18.67;9.90;;;;;;;15.35;75.08;100605.63;2926324;79;21043;-84
2022/05/15 00:33:53;;;;;;;17.27;10.08;;;;;;;15.38;74.72;100619.23;2916018;80;21035;-86
2022/05/15 00:37:55;;;;;;;17.73;9.08;;;;;;;15.29;74.57;100622.31;2936094;80;21106;-86
2022/05/15 00:41:56;;;;;;;13.15;8.90;;;;;;;15.11;74.81;100618.22;2920679;80;21035;-88
2022/05/15 00:45:57;;;;;;;15.58;9.25;;;;;;;15.05;75.07;100621.02;2918565;79;21582;-88
2022/05/15 00:50:00;;;;;;;22.00;11.45;;;;;;;15.09;75.38;100626.91;2893689;80;21054;-88
2022/05/15 00:54:21;;;;;;;17.75;8.53;;;;;;;15.08;75.43;100627.41;2935869;80;21030;-87
2022/05/15 00:58:28;;;;;;;19.60;12.43;;;;;;;15.08;75.49;100622.54;2921507;79;22172;-88
2022/05/15 01:03:02;;;;;;;20.08;9.78;;;;;;;15.13;75.67;100628.29;2915171;80;21393;-89
2022/05/15 01:07:05;;;;;;;17.35;11.85;;;;;;;15.04;75.60;100626.51;2907117;80;21079;-88
2022/05/15 01:11:11;;;;;;;18.95;11.28;;;;;;;14.85;76.49;100621.08;2934967;79;21019;-86
2022/05/15 01:15:18;;;;;;;20.12;11.25;;;;;;;14.75;76.57;100614.89;2920797;79;21014;-88
2022/05/15 01:19:36;;;;;;;17.92;9.48;;;;;;;14.79;76.79;100623.49;2920376;80;21538;-88
2022/05/15 01:23:37;;;;;;;22.40;8.98;;;;;;;14.77;76.59;100621.45;2906313;80;21014;-88
2022/05/15 01:27:38;;;;;;;14.68;9.15;;;;;;;14.71;76.76;100626.38;2897255;80;20976;-88
2022/05/15 01:31:39;;;;;;;11.25;9.33;;;;;;;14.62;77.05;100629.91;2915479;80;21058;-88
2022/05/15 01:35:40;;;;;;;15.32;9.33;;;;;;;14.43;77.38;100630.28;2945066;80;20984;-88
2022/05/15 01:39:41;;;;;;;20.40;9.08;;;;;;;14.37;77.51;100630.87;2909773;79;21049;-87
2022/05/15 01:43:46;;;;;;;16.80;9.43;;;;;;;14.31;77.53;100628.73;2905346;81;21006;-88
2022/05/15 01:47:47;;;;;;;14.55;9.83;;;;;;;14.32;77.50;100626.41;2903118;79;21070;-88
2022/05/15 01:51:48;;;;;;;16.40;9.30;;;;;;;14.37;77.45;100629.53;2927708;81;21592;-87
2022/05/15 01:55:50;;;;;;;14.53;9.08;;;;;;;14.43;77.30;100634.30;2873945;81;21058;-88
2022/05/15 01:59:51;;;;;;;13.80;8.63;;;;;;;14.46;77.08;100631.84;2922123;81;20964;-86
2022/05/15 02:03:52;;;;;;;15.68;8.05;;;;;;;14.40;76.79;100637.27;2899279;81;21065;-88
2022/05/15 02:07:54;;;;;;;19.02;9.40;;;;;;;14.27;77.63;100637.56;2902962;81;21029;-88
2022/05/15 02:11:55;;;;;;;14.28;8.00;;;;;;;14.21;77.66;100636.77;2914736;81;20999;-88
2022/05/15 02:15:57;;;;;;;16.70;8.65;;;;;;;14.19;77.61;100640.59;2899701;81;21058;-88
2022/05/15 02:19:59;;;;;;;15.63;8.30;;;;;;;14.24;77.68;100641.83;2900183;81;21058;-88
2022/05/15 02:24:00;;;;;;;15.03;8.05;;;;;;;14.31;77.65;100642.11;2903500;81;21006;-86
2022/05/15 02:28:01;;;;;;;16.00;9.93;;;;;;;14.38;77.49;100643.73;2920079;81;21022;-87
2022/05/15 02:32:04;;;;;;;20.43;9.35;;;;;;;14.40;76.89;100637.27;2904097;81;21021;-87
2022/05/15 02:36:06;;;;;;;10.18;8.23;;;;;;;14.39;76.78;100645.42;2953781;80;21045;-87
2022/05/15 02:40:10;;;;;;;13.88;8.13;;;;;;;14.37;76.53;100647.40;2948657;80;21007;-88
2022/05/15 02:44:11;;;;;;;12.55;7.67;;;;;;;14.36;76.34;100655.08;2935173;80;21019;-87
2022/05/15 02:52:32;;;;;;;16.87;7.35;;;;;;;14.32;75.50;100663.05;2915149;80;21035;-87
2022/05/15 02:56:35;;;;;;;9.93;6.67;;;;;;;14.21;75.35;100660.02;2931212;80;21085;-88
2022/05/15 03:00:35;;;;;;;13.28;7.80;;;;;;;14.09;75.31;100666.83;2918135;80;21558;-87
2022/05/15 03:04:37;;;;;;;13.88;9.15;;;;;;;13.97;75.19;100671.46;2943842;80;21043;-88
2022/05/15 03:08:43;;;;;;;10.15;6.95;;;;;;;13.88;75.12;100678.13;2944500;80;21034;-87
2022/05/15 03:12:44;;;;;;;16.97;8.85;;;;;;;13.75;75.04;100680.55;2932292;80;21046;-88
2022/05/15 03:16:45;;;;;;;14.18;8.98;;;;;;;13.59;75.30;100684.27;2942124;80;21620;-87
2022/05/15 03:20:46;;;;;;;15.00;8.28;;;;;;;13.42;75.83;100689.23;2940141;80;20979;-87
2022/05/15 03:24:47;;;;;;;11.85;7.12;;;;;;;13.19;76.69;100678.73;2904526;80;21637;-88
2022/05/15 03:28:48;;;;;;;15.03;8.78;;;;;;;13.11;77.19;100675.86;2926675;80;20984;-88
2022/05/15 03:32:49;;;;;;;13.10;7.67;;;;;;;13.13;77.41;100685.45;2906424;81;21082;-88
2022/05/15 03:36:53;;;;;;;11.55;7.45;;;;;;;13.24;77.50;100687.66;2957173;79;20986;-87
2022/05/15 03:40:54;;;;;;;10.25;7.75;;;;;;;13.35;77.34;100687.58;2929501;81;21039;-88
2022/05/15 03:44:55;;;;;;;15.58;7.47;;;;;;;13.50;76.94;100697.44;2893851;81;21096;-87
2022/05/15 03:48:58;;;;;;;16.87;7.22;;;;;;;13.63;76.79;100698.53;2874898;81;21049;-88
2022/05/15 03:52:59;;;;;;;16.62;7.60;;;;;;;13.68;76.25;100703.01;2873860;81;21027;-88
2022/05/15 03:57:00;;;;;;;15.55;7.45;;;;;;;13.74;76.04;100696.75;2885834;80;21053;-87
2022/05/15 04:01:03;;;;;;;21.52;6.55;;;;;;;13.71;76.05;100709.41;2956463;80;21480;-88
2022/05/15 04:05:10;;;;;;;13.75;7.75;;;;;;;13.67;76.47;100708.00;2920516;80;21383;-87
2022/05/15 04:09:11;;;;;;;14.30;7.70;;;;;;;13.82;76.54;100716.48;2908338;80;21041;-86
2022/05/15 04:13:13;;;;;;;12.88;6.92;;;;;;;13.99;76.33;100717.63;2926915;79;21537;-87
2022/05/15 04:17:15;;;;;;;12.07;6.25;;;;;;;14.61;74.74;100719.72;2893024;81;21657;-88
2022/05/15 04:21:16;;;;;;;10.45;5.10;;;;;;;15.40;72.57;100724.47;2904374;80;21109;-87
2022/05/15 04:25:19;;;;;;;9.85;5.30;;;;;;;16.17;69.83;100732.80;2886750;81;21070;-86
2022/05/15 04:29:21;;;;;;;20.68;6.12;;;;;;;16.88;67.31;100728.37;2909151;81;21014;-88
2022/05/15 04:33:22;;;;;;;10.75;4.95;;;;;;;17.60;66.19;100730.52;2894849;81;21008;-87
2022/05/15 04:37:23;;;;;;;9.55;5.20;;;;;;;18.12;63.17;100736.28;2908741;81;21002;-87
2022/05/15 04:41:24;;;;;;;7.20;4.80;;;;;;;18.78;63.21;100742.25;2908477;81;21108;-88
2022/05/15 04:45:25;;;;;;;9.33;4.80;;;;;;;19.30;62.23;100742.90;2909399;81;21064;-88
2022/05/15 04:49:27;;;;;;;13.32;5.53;;;;;;;19.88;60.38;100749.45;2909845;81;21046;-86
2022/05/15 04:53:28;;;;;;;6.40;5.03;;;;;;;19.83;58.83;100744.56;2923286;81;20988;-84
2022/05/15 04:57:29;;;;;;;6.33;3.55;;;;;;;20.04;58.41;100745.84;2897381;80;21068;-86
2022/05/15 05:01:30;;;;;;;10.30;4.70;;;;;;;19.94;58.80;100752.81;2889501;80;21037;-86
2022/05/15 05:05:33;;;;;;;7.65;4.87;;;;;;;19.98;58.94;100756.83;2935542;79;21033;-86
2022/05/15 05:09:34;;;;;;;8.75;4.28;;;;;;;20.25;57.43;100762.25;2928848;80;21566;-85
2022/05/15 05:13:35;;;;;;;10.82;5.20;;;;;;;20.41;56.33;100765.35;2937764;80;21463;-86
2022/05/15 05:17:36;;;;;;;6.75;3.47;;;;;;;20.32;56.04;100766.44;2909971;80;21031;-86
2022/05/15 05:21:37;;;;;;;8.85;3.92;;;;;;;20.41;56.34;100770.76;2914885;80;21035;-87
2022/05/15 05:25:38;;;;;;;5.30;2.72;;;;;;;20.53;53.96;100764.95;2919305;79;21009;-85
2022/05/15 05:29:40;;;;;;;5.78;2.70;;;;;;;20.58;53.20;100774.70;2938056;79;21042;-85
2022/05/15 05:33:41;;;;;;;5.30;3.33;;;;;;;20.69;54.17;100777.48;2945986;79;21050;-84
2022/05/15 05:37:42;;;;;;;6.50;3.83;;;;;;;20.67;54.61;100769.58;2948789;78;21106;-84
2022/05/15 05:41:43;;;;;;;7.22;3.27;;;;;;;20.76;54.07;100776.27;2941491;78;20939;-87
2022/05/15 05:45:44;;;;;;;13.00;4.25;;;;;;;21.02;53.88;100775.91;2948150;80;20995;-84
2022/05/15 05:49:45;;;;;;;9.83;3.52;;;;;;;21.25;53.80;100781.27;2946607;80;21034;-86
2022/05/15 05:53:46;;;;;;;3.33;2.87;;;;;;;21.43;52.48;100783.28;2940566;79;21026;-87
2022/05/15 05:57:48;;;;;;;6.55;2.92;;;;;;;21.21;52.20;100788.05;2936415;80;21624;-86
2022/05/15 06:01:49;;;;;;;5.05;2.98;;;;;;;21.00;53.28;100798.23;2853797;81;21109;-88
2022/05/15 06:05:50;;;;;;;6.45;2.47;;;;;;;21.03;52.88;100801.06;2961118;79;21033;-87
2022/05/15 06:09:53;;;;;;;4.97;3.05;;;;;;;21.05;52.64;100800.41;2917579;80;21029;-87
2022/05/15 06:13:54;;;;;;;7.92;3.37;;;;;;;21.23;53.49;100798.70;2911843;81;21022;-86
2022/05/15 06:17:59;;;;;;;6.50;4.10;;;;;;;21.42;52.54;100803.25;2949679;80;20958;-86
2022/05/15 06:22:00;;;;;;;8.10;3.87;;;;;;;21.55;52.21;100790.75;2915996;80;20994;-86
2022/05/15 06:26:03;;;;;;;11.18;3.17;;;;;;;21.65;52.62;100801.86;2889402;81;21033;-87
2022/05/15 06:30:05;;;;;;;8.30;3.98;;;;;;;21.61;52.16;100797.80;2963122;79;21005;-87
2022/05/15 06:34:06;;;;;;;9.88;3.62;;;;;;;21.35;52.60;100798.59;2915688;80;21066;-85
2022/05/15 06:38:08;;;;;;;6.60;4.03;;;;;;;21.30;52.46;100798.81;2898200;81;21581;-85
2022/05/15 06:42:09;;;;;;;6.83;3.33;;;;;;;21.16;52.48;100800.47;2915852;81;21567;-87
2022/05/15 06:46:10;;;;;;;8.35;3.75;;;;;;;21.33;52.80;100802.50;2910772;81;21626;-85
2022/05/15 06:50:12;;;;;;;10.48;5.58;;;;;;;21.33;52.22;100802.50;2903521;80;21027;-85
2022/05/15 06:54:13;;;;;;;7.67;4.25;;;;;;;21.41;53.13;100802.41;2915769;81;20959;-86
2022/05/15 06:58:14;;;;;;;6.37;2.95;;;;;;;21.68;51.59;100804.19;2911339;81;21070;-88
2022/05/15 07:02:15;;;;;;;11.53;3.47;;;;;;;21.43;52.15;100803.08;2937416;80;20987;-86
2022/05/15 07:06:16;;;;;;;8.63;3.85;;;;;;;21.61;52.02;100804.06;2898033;81;21022;-86
2022/05/15 07:10:17;;;;;;;4.10;2.75;;;;;;;21.98;51.70;100805.51;2876524;80;21017;-86
2022/05/15 07:14:18;;;;;;;5.20;3.00;;;;;;;21.90;51.21;100798.86;2896756;80;21066;-88
2022/05/15 07:18:21;;;;;;;12.55;3.62;;;;;;;21.74;52.27;100800.73;2911548;80;20999;-86
2022/05/15 07:22:22;;;;;;;11.50;4.05;;;;;;;21.68;52.97;100813.67;2900074;81;21038;-86
2022/05/15 07:26:24;;;;;;;5.70;3.02;;;;;;;21.75;52.75;100807.00;2910752;81;21462;-86
2022/05/15 07:30:25;;;;;;;7.05;3.60;;;;;;;21.81;51.13;100803.03;2926754;81;20992;-86
2022/05/15 07:34:27;;;;;;;3.15;2.30;;;;;;;21.82;51.28;100801.15;2889146;81;21089;-84
2022/05/15 07:38:27;;;;;;;5.45;2.25;;;;;;;21.71;52.44;100805.67;2909275;81;21042;-86
2022/05/15 07:42:29;;;;;;;5.85;3.33;;;;;;;21.72;52.54;100798.72;2909338;80;30511;-85
2022/05/15 07:46:30;;;;;;;5.92;2.67;;;;;;;21.67;52.28;100799.81;2903843;81;21033;-86
2022/05/15 07:50:31;;;;;;;6.15;2.55;;;;;;;21.82;51.71;100793.02;2898320;81;21015;-86
2022/05/15 07:54:33;;;;;;;4.60;2.17;;;;;;;21.84;53.68;100789.61;2937592;80;21026;-85
2022/05/15 07:58:34;;;;;;;4.60;2.08;;;;;;;22.05;52.51;100801.04;2916293;80;21052;-86
2022/05/15 08:02:36;;;;;;;6.95;2.80;;;;;;;22.13;51.49;100789.76;2908924;80;21028;-86
2022/05/15 08:10:57;;;;;;;9.23;2.17;;;;;;;22.18;53.60;100791.38;2876860;81;21402;-86
2022/05/15 08:14:58;;;;;;;5.37;2.17;;;;;;;22.24;51.73;100785.21;2917020;81;21000;-85
2022/05/15 08:23:34;;;;;;;8.38;3.33;;;;;;;22.46;51.76;100789.30;2924004;80;21029;-86
2022/05/15 08:27:35;;;;;;;3.72;2.42;;;;;;;22.29;50.75;100784.11;2907952;81;21008;-86
2022/05/15 08:31:36;;;;;;;6.97;2.67;;;;;;;22.18;51.71;100786.81;2931228;81;20996;-86
2022/05/15 08:35:38;;;;;;;9.00;2.75;;;;;;;22.18;51.77;100791.38;2894510;80;21058;-84
2022/05/15 08:39:39;;;;;;;9.38;2.33;;;;;;;22.03;51.07;100774.66;2902106;81;21011;-85
2022/05/15 08:44:04;;;;;;;6.70;2.58;;;;;;;22.11;51.23;100785.38;2903258;81;21059;-86
2022/05/15 08:48:09;;;;;;;5.20;2.22;;;;;;;22.19;51.48;100788.98;2907808;81;21011;-84
2022/05/15 08:52:24;;;;;;;5.37;2.80;;;;;;;22.28;51.62;100787.00;2887633;82;21022;-84
2022/05/15 08:56:26;;;;;;;5.30;2.03;;;;;;;22.48;50.77;100791.33;2905771;82;20986;-86
2022/05/15 09:00:42;;;;;;;4.90;2.00;;;;;;;22.53;49.92;100794.30;2937022;81;21000;-86
2022/05/15 09:04:43;;;;;;;4.92;2.22;;;;;;;22.33;49.48;100794.06;2900070;81;20943;-86
2022/05/15 09:09:18;;;;;;;7.42;2.92;;;;;;;22.43;52.51;100793.22;2824853;82;20970;-84
2022/05/15 09:13:25;;;;;;;4.35;1.62;;;;;;;22.53;52.34;100793.80;2898152;80;20999;-87
2022/05/15 09:17:44;;;;;;;7.22;2.50;;;;;;;22.86;49.99;100791.07;2899099;81;21002;-87
2022/05/15 09:21:45;;;;;;;4.22;1.40;;;;;;;22.58;49.49;100794.55;2893428;81;21009;-85
2022/05/15 09:26:09;;;;;;;2.87;1.60;;;;;;;22.28;49.28;100798.70;2935098;81;21005;-86
2022/05/15 09:30:11;;;;;;;2.92;1.22;;;;;;;22.15;50.29;100798.53;2929791;81;21019;-87
2022/05/15 09:34:31;;;;;;;4.58;2.12;;;;;;;22.23;49.90;100797.91;2946242;80;21046;-86
2022/05/15 09:38:33;;;;;;;4.42;2.10;;;;;;;22.39;51.97;100796.82;2928626;80;21098;-86
2022/05/15 09:47:01;;;;;;;5.42;2.75;;;;;;;22.48;48.38;100798.11;2910300;81;21044;-85
2022/05/15 09:51:08;;;;;;;3.62;2.15;;;;;;;22.53;48.99;100792.44;2899078;80;21478;-86
2022/05/15 09:55:18;;;;;;;7.37;2.62;;;;;;;22.59;49.96;100780.48;2911884;81;21027;-87
2022/05/15 09:59:23;;;;;;;2.85;1.32;;;;;;;22.70;49.70;100789.98;2889452;80;21041;-85
2022/05/15 10:03:26;;;;;;;4.40;1.87;;;;;;;22.84;50.21;100785.01;2897116;82;21046;-85
2022/05/15 10:07:35;;;;;;;3.95;1.67;;;;;;;22.86;50.30;100787.00;2921286;80;21026;-87
2022/05/15 10:11:41;;;;;;;2.20;1.25;;;;;;;22.92;49.35;100778.08;2917451;81;21011;-85
2022/05/15 10:15:48;;;;;;;3.05;1.40;;;;;;;22.82;49.46;100788.44;2891632;80;21010;-87
2022/05/15 10:20:25;;;;;;;3.65;1.40;;;;;;;22.67;48.46;100792.05;2899860;80;20981;-87
2022/05/15 10:24:31;;;;;;;4.42;2.02;;;;;;;22.62;50.11;100782.31;2892096;80;20978;-87
2022/05/15 10:28:45;;;;;;;6.45;1.98;;;;;;;22.37;49.44;100787.23;2909406;80;21118;-87
2022/05/15 10:32:56;;;;;;;6.10;2.33;;;;;;;22.32;49.63;100772.89;2915824;79;21012;-86
2022/05/15 10:37:09;;;;;;;4.05;1.80;;;;;;;22.71;50.49;100768.61;2894469;81;20998;-87
2022/05/15 10:41:26;;;;;;;5.67;1.98;;;;;;;22.91;48.73;100770.16;2899625;79;21567;-87
2022/05/15 10:45:53;;;;;;;3.12;1.37;;;;;;;22.92;47.57;100774.01;2920941;79;21605;-87
2022/05/15 10:50:26;;;;;;;2.77;1.25;;;;;;;22.92;46.70;100767.77;2902492;81;21087;-88
2022/05/15 11:00:10;;;;;;;2.62;1.27;;;;;;;22.94;47.63;100758.38;2925505;79;21000;-88
2022/05/15 11:04:39;;;;;;;1.85;0.90;;;;;;;22.77;46.27;100753.76;2952625;80;20984;-86
2022/05/15 11:08:49;;;;;;;3.62;1.98;;;;;;;22.70;46.24;100750.66;2965857;79;21070;-87
2022/05/15 11:13:02;;;;;;;5.37;1.87;;;;;;;22.80;48.68;100741.70;2966030;78;21062;-87
2022/05/15 11:17:17;;;;;;;3.37;1.80;;;;;;;22.80;47.90;100737.63;2960633;79;21037;-85
2022/05/15 11:21:25;;;;;;;;;;;;;;;22.65;46.68;100741.75;2958023;79;21010;-86
2022/05/15 11:25:34;;;;;;;3.90;1.50;;;;;;;22.51;47.71;100734.88;2948416;79;20088;-88
2022/05/15 11:29:42;;;;;;;2.10;1.20;;;;;;;22.54;46.83;100733.13;2954986;80;21038;-87
2022/05/15 11:33:52;;;;;;;16.62;3.20;;;;;;;22.77;44.81;100732.06;2940763;79;21018;-88
2022/05/15 11:38:08;;;;;;;2.70;1.32;;;;;;;22.94;47.34;100721.75;2947506;80;21011;-87
2022/05/15 11:42:17;;;;;;;2.42;1.42;;;;;;;22.77;46.59;100722.58;2957209;79;21516;-88
2022/05/15 11:46:18;;;;;;;2.35;1.10;;;;;;;22.97;47.41;100717.28;2962716;80;21044;-87
2022/05/15 11:50:30;;;;;;;9.30;1.55;;;;;;;23.22;46.09;100714.13;2858429;80;21014;-86
2022/05/15 11:54:40;;;;;;;49.80;9.38;;;;;;;23.37;49.81;100699.61;2905169;81;21043;-87
2022/05/15 11:58:42;;;;;;;2.85;1.07;;;;;;;23.33;47.42;100706.48;2897358;81;20992;-86
2022/05/15 12:02:54;;;;;;;4.22;1.20;;;;;;;23.49;45.11;100698.55;2909347;80;20990;-87
2022/05/15 12:07:01;;;;;;;5.85;1.80;;;;;;;23.66;43.89;100694.95;2888452;81;21549;-87
2022/05/15 12:11:19;;;;;;;4.92;1.37;;;;;;;23.42;45.22;100692.23;2905654;81;21066;-88
2022/05/15 12:15:40;;;;;;;6.58;1.47;;;;;;;23.57;43.97;100692.08;2879618;82;21553;-87
2022/05/15 12:19:45;;;;;;;3.90;1.67;;;;;;;23.82;45.08;100682.38;2910443;81;21082;-87
2022/05/15 12:32:57;;;;;;;1.75;1.12;;;;;;;23.94;45.56;100669.04;2915399;80;21062;-87
2022/05/15 12:37:03;;;;;;;2.87;1.47;;;;;;;24.08;43.87;100667.21;2933625;80;21585;-88
2022/05/15 12:41:17;;;;;;;7.83;1.45;;;;;;;24.20;43.47;100666.61;2885715;81;20996;-88
2022/05/15 12:45:21;;;;;;;6.90;1.52;;;;;;;24.16;42.87;100670.77;2893786;82;21847;-88
2022/05/15 12:49:36;;;;;;;1.65;1.07;;;;;;;24.10;43.03;100666.48;2928450;80;20987;-87
2022/05/15 12:53:46;;;;;;;4.13;1.60;;;;;;;24.05;45.22;100662.70;2933593;81;21054;-87
2022/05/15 12:57:51;;;;;;;2.25;1.15;;;;;;;23.91;47.31;100657.23;2870199;82;21873;-87
2022/05/15 13:01:53;;;;;;;3.98;1.05;;;;;;;23.77;43.50;100655.52;2909767;81;21051;-88
2022/05/15 13:05:58;;;;;;;2.52;0.95;;;;;;;23.71;42.98;100653.63;2887842;81;21336;-86
2022/05/15 13:10:08;;;;;;;2.77;1.60;;;;;;;23.87;43.13;100652.41;2899770;81;21432;-87
2022/05/15 13:14:36;;;;;;;3.25;1.10;;;;;;;24.07;42.45;100638.37;2909684;81;21016;-88
2022/05/15 13:18:37;;;;;;;3.87;1.20;;;;;;;24.25;42.09;100638.28;2901198;81;21023;-88
2022/05/15 13:22:38;;;;;;;3.22;1.25;;;;;;;24.38;44.55;100626.06;2918936;81;21050;-87
2022/05/15 13:26:45;;;;;;;2.67;0.70;;;;;;;24.49;45.57;100630.54;2907895;81;21007;-87
2022/05/15 13:30:46;;;;;;;1.95;1.12;;;;;;;24.54;46.14;100630.73;2912501;81;21110;-88
2022/05/15 13:34:50;;;;;;;2.90;1.50;;;;;;;24.33;42.77;100620.94;2904702;81;21622;-86
2022/05/15 13:43:28;;;;;;;1.95;0.90;;;;;;;24.15;43.74;100622.90;2917656;80;21029;-88
2022/05/15 13:47:25;;;;;;;3.55;1.17;;;;;;;24.12;43.87;100612.45;2911952;80;21034;-87
2022/05/15 13:51:51;;;;;;;2.60;1.37;;;;;;;24.12;43.40;100612.45;2914856;80;20982;-88
2022/05/15 13:55:57;;;;;;;1.07;0.75;;;;;;;24.23;44.59;100603.69;2930376;80;21073;-88
2022/05/15 14:00:11;;;;;;;2.25;1.25;;;;;;;24.14;43.81;100609.84;2899360;81;21584;-88
2022/05/15 14:04:27;;;;;;;5.55;1.92;;;;;;;24.14;44.02;100611.20;2922111;81;21020;-88
2022/05/15 14:08:28;;;;;;;37.38;6.33;;;;;;;24.35;45.08;100601.99;2907364;81;21059;-87
2022/05/15 14:12:46;;;;;;;2.87;1.42;;;;;;;24.43;42.75;100604.20;2950704;80;21342;-88
2022/05/15 14:16:53;;;;;;;306.45;58.73;;;;;;;24.51;44.45;100593.95;2927610;80;21006;-89
2022/05/15 14:21:14;;;;;;;6.28;1.37;;;;;;;24.69;44.56;100589.74;2907101;80;21014;-88
2022/05/15 14:25:15;;;;;;;4.33;0.90;;;;;;;24.76;44.20;100583.78;2922037;80;21007;-87
2022/05/15 14:29:16;;;;;;;5.33;1.85;;;;;;;24.68;43.48;100592.97;2925474;79;21479;-88
2022/05/15 14:33:22;;;;;;;1.90;1.15;;;;;;;24.59;43.58;100584.73;2918545;80;20995;-88
2022/05/15 14:37:23;;;;;;;2.10;1.30;;;;;;;24.51;42.32;100593.09;2921415;80;20978;-88
2022/05/15 14:41:25;;;;;;;1.87;1.00;;;;;;;24.49;42.04;100592.48;2928156;80;21007;-87
2022/05/15 14:45:28;;;;;;;9.35;1.05;;;;;;;24.56;42.25;100584.31;2925677;80;20974;-88
2022/05/15 14:49:33;;;;;;;3.70;1.47;;;;;;;24.70;43.84;100581.05;2907348;80;21050;-87
2022/05/15 14:53:36;;;;;;;1.87;0.87;;;;;;;24.62;41.13;100580.23;2927694;80;21014;-87
2022/05/15 14:57:37;;;;;;;2.67;1.35;;;;;;;24.69;41.86;100581.58;2925832;80;21029;-87
2022/05/15 15:01:40;;;;;;;4.70;1.40;;;;;;;24.73;43.76;100571.09;2926064;80;22157;-87
2022/05/15 15:05:48;;;;;;;4.22;2.08;;;;;;;24.65;41.85;100570.28;2895554;80;21303;-89
2022/05/15 15:09:49;;;;;;;2.80;1.52;;;;;;;24.59;44.02;100575.73;2910734;80;20983;-87
2022/05/15 15:14:04;;;;;;;3.80;1.50;;;;;;;24.55;43.61;100579.39;2910368;80;21066;-84
2022/05/15 15:18:06;;;;;;;4.72;1.52;;;;;;;24.61;44.32;100574.48;2928083;80;21118;-85
2022/05/15 15:22:07;;;;;;;8.33;1.22;;;;;;;24.60;43.11;100564.66;2886071;80;21034;-86
2022/05/15 15:26:09;;;;;;;2.58;1.47;;;;;;;24.57;41.32;100568.31;2931570;79;21098;-86
2022/05/15 15:30:12;;;;;;;1.57;1.35;;;;;;;24.66;42.23;100565.16;2902500;80;21011;-88
2022/05/15 15:34:14;;;;;;;6.22;1.70;;;;;;;24.70;42.00;100556.05;2885911;80;20977;-89
2022/05/15 15:38:16;;;;;;;3.58;1.52;;;;;;;24.80;43.71;100559.72;2913794;81;21039;-87
2022/05/15 15:42:17;;;;;;;1.52;1.20;;;;;;;24.93;41.98;100556.94;2880575;81;21019;-86
2022/05/15 15:46:20;;;;;;;6.15;1.67;;;;;;;25.00;41.83;100557.45;2898346;80;21483;-88
2022/05/15 15:50:22;;;;;;;2.27;1.25;;;;;;;25.05;42.99;100551.66;2919970;81;21035;-86
2022/05/15 15:54:24;;;;;;;3.65;1.40;;;;;;;25.15;41.25;100543.03;2917428;80;20992;-86
2022/05/15 15:58:25;;;;;;;2.52;1.22;;;;;;;25.15;43.10;100534.86;2883494;81;21007;-86
2022/05/15 16:02:26;;;;;;;2.20;1.02;;;;;;;25.13;39.69;100530.17;2927826;79;21014;-86
2022/05/15 16:06:28;;;;;;;2.30;1.52;;;;;;;25.15;40.19;100533.50;2919524;80;21430;-84
2022/05/15 16:10:37;;;;;;;4.62;1.32;;;;;;;25.24;40.26;100530.86;2863243;81;21018;-86
2022/05/15 16:14:39;;;;;;;3.70;1.32;;;;;;;25.15;40.37;100535.41;2957419;79;21027;-86
2022/05/15 16:18:41;;;;;;;2.87;0.90;;;;;;;25.09;41.56;100528.94;2928408;80;21034;-86
2022/05/15 16:22:43;;;;;;;2.55;1.05;;;;;;;24.98;42.50;100527.73;2922413;80;20994;-87
2022/05/15 16:26:47;;;;;;;4.20;1.20;;;;;;;24.99;40.82;100524.50;2937590;80;21002;-87
2022/05/15 16:30:49;;;;;;;1.07;0.83;;;;;;;24.84;41.09;100536.47;2946870;80;21580;-86
2022/05/15 16:34:50;;;;;;;1.80;0.68;;;;;;;24.63;43.69;100528.87;2948158;80;20988;-85
2022/05/15 16:38:51;;;;;;;3.75;1.20;;;;;;;24.37;43.80;100536.05;2938029;80;21027;-85
2022/05/15 16:42:53;;;;;;;5.58;1.27;;;;;;;24.20;43.99;100536.17;2936855;80;21020;-84
2022/05/15 16:46:54;;;;;;;3.83;1.45;;;;;;;24.04;44.37;100535.55;2947062;80;21000;-86
2022/05/15 16:50:55;;;;;;;6.33;1.07;;;;;;;23.85;45.36;100534.98;2947335;80;20995;-86
2022/05/15 16:54:56;;;;;;;2.05;0.93;;;;;;;23.63;43.48;100533.81;2946647;80;21334;-86
2022/05/15 16:58:58;;;;;;;3.90;1.07;;;;;;;23.45;44.36;100537.95;2912293;80;21033;-83
2022/05/15 17:02:59;;;;;;;2.40;0.93;;;;;;;23.32;45.40;100538.76;2864454;80;21091;-84
2022/05/15 17:07:00;;;;;;;1.98;0.88;;;;;;;23.23;45.40;100531.80;2923921;79;21063;-84
2022/05/15 17:11:03;;;;;;;3.22;1.70;;;;;;;23.14;46.41;100532.49;2864744;81;20999;-85
2022/05/15 17:15:06;;;;;;;4.08;0.90;;;;;;;23.07;44.23;100530.28;2938955;80;21523;-88
2022/05/15 17:19:07;;;;;;;1.82;1.40;;;;;;;22.96;46.24;100535.23;2935041;79;21046;-90
2022/05/15 17:23:09;;;;;;;6.85;1.32;;;;;;;22.86;47.33;100533.44;2915735;79;21056;-84
2022/05/15 17:27:10;;;;;;;1.60;0.57;;;;;;;22.77;48.21;100530.55;2866885;80;21047;-85
2022/05/15 17:35:31;;;;;;;3.80;1.00;;;;;;;22.60;48.72;100532.77;2963584;80;21049;-86
2022/05/15 17:39:32;;;;;;;1.55;0.85;;;;;;;22.46;47.69;100533.18;2883590;80;20992;-84
2022/05/15 17:43:33;;;;;;;2.45;0.80;;;;;;;22.26;47.56;100532.53;2854295;81;21029;-86
2022/05/15 17:47:36;;;;;;;1.30;0.98;;;;;;;22.04;48.39;100531.72;2931901;81;20996;-84
2022/05/15 17:51:38;;;;;;;1.65;0.80;;;;;;;21.83;47.76;100534.27;2909032;80;20990;-84
2022/05/15 17:55:39;;;;;;;6.20;1.60;;;;;;;21.63;46.23;100538.63;2928884;80;21006;-86
2022/05/15 17:59:41;;;;;;;4.97;1.55;;;;;;;21.43;46.41;100540.61;2909584;80;21010;-86
2022/05/15 18:03:42;;;;;;;4.03;1.98;;;;;;;21.30;46.41;100544.51;2880188;81;21043;-85
2022/05/15 18:07:44;;;;;;;2.75;1.30;;;;;;;21.16;46.78;100544.88;2918861;80;21038;-85
2022/05/15 18:11:45;;;;;;;2.00;1.20;;;;;;;21.04;46.94;100543.17;2926502;80;21049;-83
2022/05/15 18:15:47;;;;;;;3.55;1.00;;;;;;;20.92;46.90;100543.64;2917474;80;20965;-84
2022/05/15 18:19:48;;;;;;;4.37;0.82;;;;;;;20.79;47.00;100541.57;2910243;81;21025;-84
2022/05/15 18:23:49;;;;;;;2.08;1.47;;;;;;;20.68;47.19;100546.93;2889328;81;20964;-84
2022/05/15 18:27:50;;;;;;;1.72;1.00;;;;;;;20.59;47.48;100546.67;2905525;80;21026;-85
2022/05/15 18:31:52;;;;;;;4.40;1.45;;;;;;;20.47;47.56;100544.12;2886491;81;21121;-85
2022/05/15 18:35:53;;;;;;;40.17;7.50;;;;;;;20.34;48.02;100545.59;2915198;81;21563;-85
2022/05/15 18:39:54;;;;;;;15.28;4.05;;;;;;;20.21;48.63;100549.42;2909703;81;20997;-86
2022/05/15 18:43:55;;;;;;;9.65;3.87;;;;;;;20.03;49.88;100554.64;2916186;80;21039;-84
2022/05/15 18:47:57;;;;;;;8.10;3.42;;;;;;;19.80;50.79;100552.77;2892992;80;21017;-85
2022/05/15 18:56:17;;;;;;;10.25;5.03;;;;;;;19.26;51.76;100563.06;2887332;80;20975;-85
2022/05/15 19:00:19;;;;;;;8.78;5.37;;;;;;;18.98;52.20;100567.05;2895903;80;21065;-87
2022/05/15 19:04:21;;;;;;;12.63;6.62;;;;;;;18.74;52.37;100565.77;2923139;80;21043;-88
2022/05/15 19:08:26;;;;;;;14.58;8.08;;;;;;;18.55;53.12;100561.09;2905481;81;21045;-88
2022/05/15 19:12:28;;;;;;;19.70;11.35;;;;;;;18.34;53.32;100571.91;2917848;81;20972;-88
2022/05/15 19:16:29;;;;;;;19.20;10.38;;;;;;;18.16;54.05;100572.06;2897661;81;20984;-88
2022/05/15 19:20:30;;;;;;;21.77;6.85;;;;;;;17.96;54.67;100572.37;2917047;80;21023;-88
2022/05/15 19:24:32;;;;;;;8.23;5.12;;;;;;;17.73;55.27;100581.61;2908038;81;21009;-89
2022/05/15 19:28:33;;;;;;;10.13;5.03;;;;;;;17.51;56.08;100578.55;2889353;81;21002;-88
2022/05/15 19:32:34;;;;;;;10.20;5.70;;;;;;;17.32;56.68;100582.86;2904985;81;21019;-89